Time;durP1;ratioP1;P1;durP2;ratioP2;P2;SDS_P1;SDS_P2;PMS_P1;PMS_P2;Temp;Humidity;BMP_temperature;BMP_pressure;BME280_temperature;BME280_humidity;BME280_pressure;Samples;Min_cycle;Max_cycle;Signal;HPM_P1;HPM_P2
2021/07/31 00:02:22;;;;;;;12.55;5.72;;;;;;;16.41;72.69;99022.44;5068490;28;20037;-76
2021/07/31 00:04:50;;;;;;;13.13;4.57;;;;;;;16.41;72.87;99025.06;5068380;28;20044;-77
2021/07/31 00:07:15;;;;;;;12.90;5.47;;;;;;;16.40;72.91;99027.75;5068318;28;20024;-76
2021/07/31 00:09:41;;;;;;;9.77;4.55;;;;;;;16.37;73.25;99022.69;5066834;28;20063;-76
2021/07/31 00:12:06;;;;;;;11.38;4.35;;;;;;;16.35;73.05;99026.25;5066857;28;20097;-77
2021/07/31 00:14:32;;;;;;;9.05;4.60;;;;;;;16.30;72.98;99023.03;5067922;28;20051;-77
2021/07/31 00:16:58;;;;;;;6.65;3.90;;;;;;;16.35;72.93;99031.50;5067989;28;20081;-76
2021/07/31 00:19:24;;;;;;;9.38;3.90;;;;;;;16.40;72.85;99033.00;5066776;28;20025;-77
2021/07/31 00:21:49;;;;;;;6.97;4.40;;;;;;;16.41;72.67;99026.81;5066726;28;20059;-77
2021/07/31 00:24:15;;;;;;;8.80;4.60;;;;;;;16.39;72.73;99016.44;5067716;28;20027;-76
2021/07/31 00:26:40;;;;;;;8.32;4.50;;;;;;;16.47;72.51;99019.47;5067741;28;20021;-77
2021/07/31 00:29:05;;;;;;;9.35;3.63;;;;;;;16.50;72.61;99022.88;5067677;28;20048;-77
2021/07/31 00:31:31;;;;;;;14.77;5.18;;;;;;;16.51;72.67;99022.78;5066586;28;20064;-76
2021/07/31 00:33:56;;;;;;;10.63;5.03;;;;;;;16.50;72.25;99020.25;5067833;28;20021;-76
2021/07/31 00:36:22;;;;;;;9.68;5.05;;;;;;;16.49;72.19;99016.78;5065867;28;20053;-75
2021/07/31 00:38:47;;;;;;;10.35;4.05;;;;;;;16.46;72.31;99022.19;5066215;28;20024;-76
2021/07/31 00:41:12;;;;;;;9.75;4.30;;;;;;;16.45;72.42;99017.88;5066173;28;20032;-75
2021/07/31 00:43:38;;;;;;;7.40;4.03;;;;;;;16.44;71.97;99018.78;5065990;28;20088;-77
2021/07/31 00:46:03;;;;;;;7.10;3.85;;;;;;;16.41;71.42;99011.09;5065892;28;20093;-77
2021/07/31 00:48:29;;;;;;;10.30;3.95;;;;;;;16.40;71.41;99009.44;5066499;28;20044;-76
2021/07/31 00:50:55;;;;;;;7.90;4.10;;;;;;;16.43;70.83;99007.50;5067087;28;20106;-76
2021/07/31 00:53:21;;;;;;;7.22;3.88;;;;;;;16.43;71.00;99004.88;5065877;28;20116;-77
2021/07/31 00:55:48;;;;;;;8.50;3.45;;;;;;;16.46;70.62;98994.22;5066178;28;20021;-77
2021/07/31 00:58:13;;;;;;;9.73;4.50;;;;;;;16.49;70.76;99001.06;5067688;28;20021;-77
2021/07/31 01:00:39;;;;;;;8.05;4.45;;;;;;;16.52;70.72;99006.13;5066377;28;20062;-77
2021/07/31 01:03:04;;;;;;;9.02;4.50;;;;;;;16.55;70.55;99005.13;5067176;28;20110;-78
2021/07/31 01:05:29;;;;;;;7.68;3.55;;;;;;;16.51;70.80;98998.34;5066927;28;20082;-78
2021/07/31 01:07:55;;;;;;;7.65;4.07;;;;;;;16.53;70.69;98997.34;5066908;28;20028;-77
2021/07/31 01:10:20;;;;;;;7.47;4.35;;;;;;;16.52;70.98;99003.50;5065689;28;20097;-76
2021/07/31 01:12:48;;;;;;;10.75;4.80;;;;;;;16.57;71.17;98992.75;5066676;28;20025;-77
2021/07/31 01:15:13;;;;;;;5.38;3.92;;;;;;;16.60;71.44;98992.59;5067628;28;20029;-78
2021/07/31 01:17:38;;;;;;;9.88;4.75;;;;;;;16.62;71.56;98995.13;5067040;28;20591;-76
2021/07/31 01:20:05;;;;;;;7.18;4.47;;;;;;;16.66;71.79;98996.66;5066787;28;20028;-77
2021/07/31 01:22:30;;;;;;;10.13;5.03;;;;;;;16.70;71.66;98999.00;5066602;28;20028;-77
2021/07/31 01:24:56;;;;;;;10.20;5.28;;;;;;;16.74;71.49;98994.44;5066414;28;20495;-76
2021/07/31 01:27:21;;;;;;;8.80;4.65;;;;;;;16.74;71.22;98981.34;5066426;28;20540;-77
2021/07/31 01:29:47;;;;;;;11.70;5.15;;;;;;;16.74;71.55;98978.72;5065050;28;20021;-77
2021/07/31 01:32:13;;;;;;;7.55;4.25;;;;;;;16.78;71.51;98982.84;5066574;28;20036;-77
2021/07/31 01:34:38;;;;;;;6.57;5.03;;;;;;;16.81;71.45;98982.66;5066203;28;20032;-77
2021/07/31 01:37:03;;;;;;;7.85;4.93;;;;;;;16.86;71.15;98977.16;5066924;28;20053;-76
2021/07/31 01:39:29;;;;;;;11.23;5.95;;;;;;;16.82;71.66;98981.72;5066180;28;20024;-77
2021/07/31 01:41:55;;;;;;;10.52;5.05;;;;;;;16.84;71.65;98976.41;5066361;28;20021;-76
2021/07/31 01:44:21;;;;;;;9.88;5.13;;;;;;;16.82;71.95;98973.03;5065958;28;20025;-76
2021/07/31 01:46:46;;;;;;;10.75;5.55;;;;;;;16.82;72.45;98971.25;5066343;28;20035;-74
2021/07/31 01:49:12;;;;;;;13.10;5.88;;;;;;;16.76;72.62;98966.38;5066253;28;20025;-75
2021/07/31 01:51:37;;;;;;;11.40;5.63;;;;;;;16.76;73.09;98966.38;5065981;28;20076;-76
2021/07/31 01:54:02;;;;;;;12.98;5.72;;;;;;;16.73;73.44;98967.41;5065982;28;20024;-76
2021/07/31 01:56:28;;;;;;;16.75;7.57;;;;;;;16.64;73.98;98956.59;5066065;28;20029;-76
2021/07/31 01:58:53;;;;;;;10.32;5.95;;;;;;;16.68;74.55;98971.19;5066298;28;20025;-76
2021/07/31 02:01:19;;;;;;;10.30;5.90;;;;;;;16.63;74.59;98963.59;5065443;28;20025;-77
2021/07/31 02:03:45;;;;;;;10.45;6.25;;;;;;;16.63;74.42;98954.91;5065946;28;20021;-76
2021/07/31 02:06:10;;;;;;;12.20;6.50;;;;;;;16.62;74.58;98958.44;5065830;28;20056;-76
2021/07/31 02:08:36;;;;;;;12.35;7.03;;;;;;;16.56;74.89;98949.16;5065935;28;20025;-76
2021/07/31 02:11:01;;;;;;;10.85;6.07;;;;;;;16.57;74.83;98954.31;5066030;28;20477;-76
2021/07/31 02:13:26;;;;;;;11.40;6.07;;;;;;;16.53;75.17;98950.19;5065906;28;20425;-77
2021/07/31 02:15:52;;;;;;;14.38;6.68;;;;;;;16.52;75.42;98948.50;5065736;28;20071;-76
2021/07/31 02:18:17;;;;;;;11.18;6.30;;;;;;;16.47;75.68;98938.28;5066324;28;20029;-77
2021/07/31 02:20:44;;;;;;;11.93;6.45;;;;;;;16.51;75.71;98946.81;5065908;28;20025;-76
2021/07/31 02:23:10;;;;;;;13.70;7.68;;;;;;;16.53;75.95;98939.72;5065955;28;20389;-77
2021/07/31 02:25:35;;;;;;;11.55;6.47;;;;;;;16.55;76.26;98947.50;5065618;28;20025;-77
2021/07/31 02:28:01;;;;;;;13.48;6.75;;;;;;;16.55;76.24;98937.00;5065621;28;20025;-76
2021/07/31 02:30:26;;;;;;;14.93;7.28;;;;;;;16.54;76.07;98946.63;5065436;28;20031;-77
2021/07/31 02:32:52;;;;;;;15.60;7.90;;;;;;;16.53;76.27;98939.72;5065738;28;20021;-76
2021/07/31 02:35:17;;;;;;;12.00;7.22;;;;;;;16.58;76.16;98935.03;5065025;28;20025;-76
2021/07/31 02:37:43;;;;;;;17.35;7.75;;;;;;;16.56;76.55;98931.69;5065584;28;20021;-76
2021/07/31 02:40:09;;;;;;;14.35;8.63;;;;;;;16.58;76.41;98942.06;5065262;28;20052;-76
2021/07/31 02:42:34;;;;;;;15.45;7.40;;;;;;;16.51;76.53;98925.84;5065303;28;20025;-76
2021/07/31 02:45:01;;;;;;;13.85;7.93;;;;;;;16.57;76.56;98928.13;5063890;28;20028;-76
2021/07/31 02:47:27;;;;;;;14.73;7.25;;;;;;;16.58;76.43;98927.19;5065435;28;20025;-75
2021/07/31 02:49:52;;;;;;;11.85;7.82;;;;;;;16.62;76.53;98921.75;5065442;28;20051;-77
2021/07/31 02:52:18;;;;;;;14.65;7.72;;;;;;;16.66;76.32;98928.53;5064852;28;20036;-77
2021/07/31 02:54:43;;;;;;;14.00;8.15;;;;;;;16.68;76.73;98929.25;5065755;28;20025;-78
2021/07/31 02:57:09;;;;;;;13.15;6.90;;;;;;;16.67;76.53;98919.72;5065585;28;20032;-76
2021/07/31 02:59:35;;;;;;;16.02;7.60;;;;;;;16.67;76.66;98924.97;5064071;28;20013;-77
2021/07/31 03:02:00;;;;;;;12.55;7.65;;;;;;;16.66;76.46;98924.13;5063985;28;20036;-77
2021/07/31 03:04:25;;;;;;;13.57;7.20;;;;;;;16.69;76.51;98923.13;5065509;28;20029;-76
2021/07/31 03:06:51;;;;;;;11.10;7.40;;;;;;;16.70;76.90;98916.94;5065522;28;20032;-77
2021/07/31 03:09:16;;;;;;;12.75;7.13;;;;;;;16.67;76.99;98917.13;5065358;28;20462;-77
2021/07/31 03:11:41;;;;;;;20.45;8.13;;;;;;;16.68;76.88;98914.41;5064151;28;20021;-76
2021/07/31 03:14:07;;;;;;;13.18;8.25;;;;;;;16.67;77.30;98919.72;5068845;28;20420;-76
2021/07/31 03:16:32;;;;;;;17.05;8.63;;;;;;;16.65;77.13;98919.81;5067944;28;20431;-78
2021/07/31 03:18:58;;;;;;;15.70;8.60;;;;;;;16.67;77.38;98919.72;5069449;28;20021;-77
2021/07/31 03:21:23;;;;;;;14.95;8.77;;;;;;;16.72;77.10;98918.53;5069131;28;20377;-77
2021/07/31 03:23:48;;;;;;;13.00;9.05;;;;;;;16.75;77.05;98909.66;5069394;28;20070;-77
2021/07/31 03:26:14;;;;;;;15.00;8.63;;;;;;;16.68;76.86;98895.22;5069210;28;20025;-78
2021/07/31 03:28:39;;;;;;;15.60;7.60;;;;;;;16.76;77.09;98913.13;5067587;28;20029;-77
2021/07/31 03:31:04;;;;;;;13.88;7.90;;;;;;;16.73;77.10;98903.66;5068123;28;20033;-77
2021/07/31 03:33:30;;;;;;;16.73;7.72;;;;;;;16.72;77.66;98907.22;5070391;28;20025;-78
2021/07/31 03:35:55;;;;;;;13.82;8.30;;;;;;;16.69;77.43;98904.78;5068809;28;20095;-78
2021/07/31 03:38:21;;;;;;;14.15;7.80;;;;;;;16.66;77.69;98902.34;5069132;28;20048;-78
2021/07/31 03:40:47;;;;;;;17.25;7.65;;;;;;;16.63;77.72;98899.91;5067649;28;20040;-78
2021/07/31 03:43:13;;;;;;;13.40;7.70;;;;;;;16.64;77.63;98899.81;5067578;28;20119;-78
2021/07/31 03:45:39;;;;;;;14.48;7.85;;;;;;;16.63;77.64;98897.28;5069158;28;20489;-78
2021/07/31 03:48:04;;;;;;;13.55;7.32;;;;;;;16.56;77.62;98891.53;5067734;28;20075;-77
2021/07/31 03:50:30;;;;;;;9.88;6.68;;;;;;;16.53;77.81;98894.34;5069409;28;20373;-78
2021/07/31 03:52:55;;;;;;;9.45;6.80;;;;;;;16.54;77.60;98894.25;5068794;28;20075;-77
2021/07/31 03:55:20;;;;;;;11.75;6.88;;;;;;;16.55;77.76;98893.31;5068653;28;20028;-78
2021/07/31 03:57:46;;;;;;;11.68;6.75;;;;;;;16.56;77.37;98891.53;5068900;28;20036;-76
2021/07/31 04:00:12;;;;;;;14.50;6.97;;;;;;;16.57;77.60;98887.97;5068317;28;20032;-77
2021/07/31 04:02:37;;;;;;;13.38;6.45;;;;;;;16.56;77.65;98886.28;5068655;28;20023;-77
2021/07/31 04:05:02;;;;;;;12.57;6.93;;;;;;;16.62;77.41;98891.19;5068263;28;20021;-77
2021/07/31 04:07:28;;;;;;;13.07;6.75;;;;;;;16.61;77.43;98881.66;5068336;28;20492;-78
2021/07/31 04:09:53;;;;;;;14.52;7.57;;;;;;;16.66;77.55;98876.13;5068371;28;20029;-77
2021/07/31 04:12:18;;;;;;;12.35;7.57;;;;;;;16.69;77.45;98886.44;5068511;28;20121;-77
2021/07/31 04:14:44;;;;;;;13.05;6.90;;;;;;;16.65;77.29;98882.28;5068462;28;20032;-77
2021/07/31 04:17:11;;;;;;;8.43;6.80;;;;;;;16.72;77.23;98900.19;5068107;28;20025;-77
2021/07/31 04:19:37;;;;;;;6.80;5.72;;;;;;;16.73;76.88;98891.41;5067206;28;20419;-77
2021/07/31 04:22:03;;;;;;;12.68;7.13;;;;;;;16.77;76.54;98892.06;5066984;28;20017;-78
2021/07/31 04:24:28;;;;;;;11.45;7.05;;;;;;;16.85;76.68;98900.31;5067755;28;20029;-77
2021/07/31 04:26:54;;;;;;;13.23;7.50;;;;;;;16.91;76.59;98891.25;5066447;28;20064;-77
2021/07/31 04:29:20;;;;;;;9.55;6.53;;;;;;;16.94;76.46;98890.22;5067706;28;20032;-77
2021/07/31 04:31:47;;;;;;;11.40;6.47;;;;;;;16.98;76.68;98889.13;5066479;28;20424;-77
2021/07/31 04:34:13;;;;;;;10.88;6.20;;;;;;;17.03;76.39;98894.09;5066523;28;20041;-77
2021/07/31 04:36:38;;;;;;;9.43;5.93;;;;;;;17.07;76.06;98893.81;5067475;28;20425;-78
2021/07/31 04:39:05;;;;;;;12.15;6.20;;;;;;;17.06;75.88;98893.91;5066602;28;20373;-78
2021/07/31 04:41:30;;;;;;;7.97;6.10;;;;;;;17.05;75.78;98906.16;5067597;28;20029;-78
2021/07/31 04:43:56;;;;;;;7.70;5.97;;;;;;;17.01;75.90;98901.19;5067936;28;20025;-78
2021/07/31 04:46:21;;;;;;;12.18;6.20;;;;;;;17.01;75.85;98896.78;5067747;28;20043;-79
2021/07/31 04:48:47;;;;;;;11.60;5.65;;;;;;;17.06;75.84;98897.34;5067850;28;20056;-76
2021/07/31 04:51:12;;;;;;;11.57;6.05;;;;;;;17.06;75.64;98897.34;5068407;28;20025;-77
2021/07/31 04:53:38;;;;;;;10.68;6.28;;;;;;;17.11;75.47;98904.13;5068223;28;20461;-78
2021/07/31 04:56:03;;;;;;;10.02;5.90;;;;;;;17.11;75.73;98904.97;5067988;28;20028;-77
2021/07/31 04:58:29;;;;;;;9.65;5.65;;;;;;;17.14;75.91;98903.97;5067271;28;20024;-76
2021/07/31 05:00:55;;;;;;;10.80;6.72;;;;;;;17.19;76.03;98905.34;5065418;28;20021;-76
2021/07/31 05:03:21;;;;;;;8.52;4.90;;;;;;;17.23;75.91;98900.78;5067024;28;20024;-77
2021/07/31 05:05:47;;;;;;;9.88;5.15;;;;;;;17.27;75.71;98894.41;5067237;28;20079;-76
2021/07/31 05:08:13;;;;;;;12.85;5.35;;;;;;;17.25;75.45;98885.78;5067372;28;20469;-77
2021/07/31 05:10:43;;;;;;;9.60;5.68;;;;;;;17.29;75.34;98894.31;5067038;28;20044;-77
2021/07/31 05:13:09;;;;;;;11.68;6.35;;;;;;;17.29;75.32;98887.28;5065680;28;20453;-76
2021/07/31 05:15:38;;;;;;;11.70;6.78;;;;;;;17.28;75.24;98893.47;5066938;28;20028;-77
2021/07/31 05:18:08;;;;;;;9.60;5.07;;;;;;;17.28;75.54;98896.09;5067186;28;20423;-77
2021/07/31 05:20:37;;;;;;;7.72;4.70;;;;;;;17.29;75.53;98896.91;5065608;28;20017;-76
2021/07/31 05:23:02;;;;;;;11.48;5.70;;;;;;;17.31;75.17;98895.91;5066653;28;20444;-77
2021/07/31 05:25:28;;;;;;;7.88;4.10;;;;;;;17.32;75.01;98894.13;5066530;28;20024;-76
2021/07/31 05:27:53;;;;;;;10.65;5.18;;;;;;;17.33;75.18;98894.03;5066165;28;20465;-78
2021/07/31 05:30:19;;;;;;;12.07;5.68;;;;;;;17.41;74.83;98897.97;5065260;28;20539;-78
2021/07/31 05:32:44;;;;;;;9.05;4.70;;;;;;;17.38;75.05;98890.28;5065645;28;20029;-76
2021/07/31 05:35:10;;;;;;;8.27;4.88;;;;;;;17.41;75.20;98892.72;5065916;28;20084;-76
2021/07/31 05:37:36;;;;;;;10.88;4.60;;;;;;;17.41;74.99;98898.78;5065086;28;20021;-76
2021/07/31 05:40:02;;;;;;;15.95;6.45;;;;;;;17.40;74.70;98893.63;5066017;28;20096;-77
2021/07/31 05:42:28;;;;;;;9.00;5.82;;;;;;;17.34;74.92;98887.84;5066207;28;20052;-79
2021/07/31 05:45:00;;;;;;;6.40;3.47;;;;;;;17.35;74.61;98883.44;5066292;28;20025;-79
2021/07/31 05:47:27;;;;;;;9.85;4.38;;;;;;;17.33;74.71;98880.91;5066396;28;20017;-77
2021/07/31 05:49:53;;;;;;;9.55;3.90;;;;;;;17.35;74.76;98886.06;5066233;28;20039;-77
2021/07/31 05:52:20;;;;;;;7.70;4.05;;;;;;;17.40;74.40;98889.25;5066348;28;20033;-77
2021/07/31 05:54:46;;;;;;;13.10;4.45;;;;;;;17.43;74.03;98891.69;5066363;28;20049;-78
2021/07/31 05:57:12;;;;;;;8.55;4.15;;;;;;;17.48;74.54;98885.31;5066921;28;20029;-79
2021/07/31 05:59:37;;;;;;;9.60;4.43;;;;;;;17.57;74.01;98887.38;5066109;28;20027;-77
2021/07/31 06:02:05;;;;;;;7.50;3.08;;;;;;;17.65;73.29;98885.09;5066663;28;20032;-77
2021/07/31 06:04:31;;;;;;;7.60;4.00;;;;;;;17.65;73.07;98884.28;5064854;28;20032;-77
2021/07/31 06:06:56;;;;;;;7.40;3.50;;;;;;;17.72;72.76;98872.44;5066063;28;20025;-76
2021/07/31 06:09:22;;;;;;;7.63;3.20;;;;;;;17.72;72.30;98880.31;5066450;28;20031;-78
2021/07/31 06:11:47;;;;;;;7.80;3.80;;;;;;;17.76;72.47;98878.34;5066659;28;20084;-78
2021/07/31 06:14:12;;;;;;;9.15;3.90;;;;;;;17.88;72.31;98874.94;5066482;28;20103;-78
2021/07/31 06:16:38;;;;;;;6.93;3.05;;;;;;;18.02;72.19;98875.84;5064675;28;20052;-78
2021/07/31 06:19:03;;;;;;;7.75;3.25;;;;;;;18.11;71.38;98872.63;5066242;28;20077;-78
2021/07/31 06:21:29;;;;;;;8.90;3.78;;;;;;;18.17;71.33;98877.50;5066073;28;20020;-78
2021/07/31 06:23:54;;;;;;;7.30;3.20;;;;;;;18.19;70.78;98874.78;5065293;28;20135;-77
2021/07/31 06:26:19;;;;;;;6.43;3.67;;;;;;;18.27;70.83;98871.66;5066109;28;20400;-77
2021/07/31 06:28:45;;;;;;;8.27;3.45;;;;;;;18.29;70.26;98862.72;5065798;28;20037;-78
2021/07/31 06:31:10;;;;;;;5.28;2.95;;;;;;;18.23;69.91;98873.63;5065513;28;20111;-77
2021/07/31 06:33:35;;;;;;;7.13;4.43;;;;;;;18.25;69.92;98869.13;5065743;28;20029;-78
2021/07/31 06:36:01;;;;;;;7.80;3.20;;;;;;;18.28;69.85;98871.56;5064530;28;20037;-78
2021/07/31 06:38:26;;;;;;;5.93;3.10;;;;;;;18.30;69.48;98866.19;5065971;28;20082;-78
2021/07/31 06:40:52;;;;;;;7.20;3.85;;;;;;;18.41;69.61;98874.22;5065768;28;20484;-78
2021/07/31 06:43:17;;;;;;;8.68;3.67;;;;;;;18.44;69.71;98866.13;5065900;28;20036;-78
2021/07/31 06:45:42;;;;;;;8.90;3.25;;;;;;;18.54;69.41;98874.25;5064418;28;20048;-78
2021/07/31 06:48:07;;;;;;;6.25;3.40;;;;;;;18.62;69.24;98873.75;5067698;28;20488;-78
2021/07/31 06:50:33;;;;;;;7.10;3.17;;;;;;;18.69;69.00;98874.19;5070392;28;20032;-78
2021/07/31 06:52:58;;;;;;;10.00;2.90;;;;;;;18.83;69.13;98879.31;5069935;28;20380;-78
2021/07/31 06:55:24;;;;;;;8.55;2.88;;;;;;;18.94;67.99;98883.03;5069707;28;20032;-76
2021/07/31 06:57:49;;;;;;;8.93;2.75;;;;;;;18.98;67.68;98883.66;5069485;28;20072;-77
2021/07/31 07:00:15;;;;;;;6.85;3.25;;;;;;;18.96;67.83;98873.25;5067815;28;20021;-77
2021/07/31 07:02:43;;;;;;;6.25;3.03;;;;;;;19.11;68.08;98878.41;5067930;28;20021;-76
2021/07/31 07:05:09;;;;;;;8.77;2.80;;;;;;;19.28;67.48;98883.34;5069180;28;20017;-77
2021/07/31 07:07:34;;;;;;;11.98;3.42;;;;;;;19.44;66.10;98882.31;5069228;28;20032;-78
2021/07/31 07:09:59;;;;;;;4.68;2.83;;;;;;;19.59;65.47;98890.03;5068183;28;20119;-78
2021/07/31 07:12:25;;;;;;;6.35;3.13;;;;;;;19.73;64.87;98886.47;5069229;28;20124;-78
2021/07/31 07:14:50;;;;;;;7.40;3.05;;;;;;;19.94;64.66;98870.88;5069237;28;20029;-77
2021/07/31 07:17:15;;;;;;;6.88;3.17;;;;;;;20.18;62.84;98883.25;5069113;28;20051;-78
2021/07/31 07:19:41;;;;;;;7.35;3.08;;;;;;;20.27;62.62;98873.84;5069251;28;20017;-78
2021/07/31 07:22:06;;;;;;;11.07;3.20;;;;;;;20.29;62.11;98882.47;5069181;28;20485;-79
2021/07/31 07:24:35;;;;;;;8.55;2.92;;;;;;;20.31;62.64;98877.91;5069251;28;20028;-78
2021/07/31 07:27:01;;;;;;;10.25;3.25;;;;;;;20.45;62.42;98879.53;5068958;28;20036;-77
2021/07/31 07:29:26;;;;;;;8.05;2.65;;;;;;;20.50;61.52;98872.13;5067559;28;20033;-78
2021/07/31 07:31:51;;;;;;;5.72;3.42;;;;;;;20.51;61.10;98871.16;5068998;28;20036;-77
2021/07/31 07:34:17;;;;;;;8.68;2.97;;;;;;;20.44;60.92;98872.59;5069425;28;20400;-78
2021/07/31 07:36:42;;;;;;;2.85;2.13;;;;;;;20.38;60.35;98873.03;5068683;28;20096;-78
2021/07/31 07:39:07;;;;;;;7.18;2.70;;;;;;;20.12;60.65;98883.69;5068575;28;20025;-77
2021/07/31 07:41:33;;;;;;;7.95;3.17;;;;;;;19.85;61.58;98887.34;5068144;28;20021;-78
2021/07/31 07:43:58;;;;;;;9.95;3.45;;;;;;;19.60;62.88;98889.94;5067107;28;20025;-78
2021/07/31 07:46:24;;;;;;;8.77;3.42;;;;;;;19.48;63.72;98882.91;5068517;28;20036;-77
2021/07/31 07:48:50;;;;;;;8.52;3.38;;;;;;;19.44;63.72;98883.13;5068329;28;20155;-77
2021/07/31 07:51:15;;;;;;;11.30;2.97;;;;;;;19.34;63.69;98889.13;5068533;28;20025;-78
2021/07/31 07:53:41;;;;;;;8.45;3.53;;;;;;;19.23;64.24;98884.63;5068467;28;20031;-78
2021/07/31 07:56:06;;;;;;;6.40;2.80;;;;;;;19.16;64.07;98884.22;5067230;28;20055;-77
2021/07/31 07:58:31;;;;;;;10.73;3.25;;;;;;;19.07;64.27;98891.75;5066648;28;20671;-78
2021/07/31 08:00:57;;;;;;;9.77;3.03;;;;;;;19.04;63.87;98886.69;5068216;28;20037;-77
2021/07/31 08:03:22;;;;;;;12.32;3.45;;;;;;;18.98;62.91;98897.63;5068313;28;20029;-78
2021/07/31 08:05:48;;;;;;;5.13;2.28;;;;;;;18.85;61.91;98899.44;5068126;28;20059;-78
2021/07/31 08:08:13;;;;;;;6.60;3.10;;;;;;;18.77;61.79;98892.06;5068234;28;20040;-77
2021/07/31 08:10:38;;;;;;;6.68;2.88;;;;;;;18.70;62.19;98896.88;5067918;28;20025;-78
2021/07/31 08:13:04;;;;;;;7.50;2.92;;;;;;;18.65;61.80;98891.94;5100459;28;20028;-77
2021/07/31 08:15:30;;;;;;;12.57;2.92;;;;;;;18.62;62.20;98896.53;5067705;28;20027;-78
2021/07/31 08:17:55;;;;;;;6.85;2.80;;;;;;;18.54;61.22;98895.28;5068216;28;20021;-78
2021/07/31 08:20:21;;;;;;;6.70;2.60;;;;;;;18.47;60.74;98887.91;5068011;28;20017;-78
2021/07/31 08:22:47;;;;;;;9.93;3.53;;;;;;;18.41;60.90;98881.25;5068025;28;20032;-77
2021/07/31 08:25:12;;;;;;;7.20;3.45;;;;;;;18.50;60.99;98890.31;5067704;28;20088;-77
2021/07/31 08:27:38;;;;;;;6.38;2.97;;;;;;;18.63;61.16;98890.31;5068034;28;20052;-78
2021/07/31 08:30:05;;;;;;;8.75;3.78;;;;;;;18.82;61.81;98890.78;5067736;28;20063;-77
2021/07/31 08:32:30;;;;;;;8.10;3.63;;;;;;;18.98;61.86;98881.84;5066376;28;20036;-78
2021/07/31 08:34:55;;;;;;;7.53;3.13;;;;;;;19.17;61.88;98880.66;5066373;28;20021;-78
2021/07/31 08:37:21;;;;;;;10.27;4.03;;;;;;;19.42;61.39;98879.78;5067298;28;20137;-78
2021/07/31 08:39:46;;;;;;;8.57;4.28;;;;;;;19.73;60.81;98879.38;5066503;28;20100;-79
2021/07/31 08:42:13;;;;;;;12.60;4.68;;;;;;;19.99;59.98;98874.03;5066879;28;20064;-78
2021/07/31 08:44:39;;;;;;;6.97;3.42;;;;;;;19.92;59.03;98873.63;5068396;28;20024;-78
2021/07/31 08:47:06;;;;;;;9.05;3.42;;;;;;;19.91;59.77;98866.69;5070331;28;20033;-79
2021/07/31 08:49:37;;;;;;;9.70;3.58;;;;;;;20.16;59.32;98869.38;5069247;28;20042;-78
2021/07/31 08:52:04;;;;;;;7.93;3.53;;;;;;;20.33;59.02;98864.63;5067386;28;20032;-78
2021/07/31 08:54:30;;;;;;;7.07;4.00;;;;;;;20.51;58.23;98871.16;5066864;28;20029;-75
2021/07/31 08:56:55;;;;;;;10.30;4.50;;;;;;;20.52;57.49;98869.38;5067154;28;20085;-78
2021/07/31 08:59:27;;;;;;;7.55;3.92;;;;;;;20.50;57.74;98879.19;5065474;28;20035;-78
2021/07/31 09:01:53;;;;;;;8.95;4.38;;;;;;;20.37;56.81;98871.34;5067430;28;20051;-77
2021/07/31 09:04:20;;;;;;;8.23;4.20;;;;;;;20.24;56.31;98872.25;5067007;28;20025;-78
2021/07/31 09:06:45;;;;;;;6.68;3.85;;;;;;;20.27;56.23;98872.03;5067020;28;20024;-77
2021/07/31 09:09:11;;;;;;;9.93;3.88;;;;;;;20.24;56.27;98877.53;5065075;28;20032;-78
2021/07/31 09:11:54;;;;;;;11.88;4.70;;;;;;;20.23;56.21;98870.59;5066658;28;20027;-79
2021/07/31 09:14:19;;;;;;;11.68;4.40;;;;;;;20.42;56.18;98879.75;5066938;28;20024;-79
2021/07/31 09:16:46;;;;;;;9.07;4.10;;;;;;;20.52;55.50;98874.66;5066736;28;20031;-79
2021/07/31 09:19:13;;;;;;;8.23;3.50;;;;;;;20.86;54.69;98872.09;5066812;28;20469;-80
2021/07/31 09:21:40;;;;;;;11.25;3.28;;;;;;;21.28;52.95;98870.72;5066930;28;20020;-80
2021/07/31 09:24:17;;;;;;;13.13;3.88;;;;;;;22.14;52.08;98864.81;5066927;28;20495;-80
2021/07/31 09:26:49;;;;;;;6.72;3.28;;;;;;;22.78;50.07;98862.25;5066211;28;20350;-80
2021/07/31 09:29:16;;;;;;;11.05;4.05;;;;;;;22.58;50.36;98857.78;5065000;28;20029;-80
2021/07/31 09:31:44;;;;;;;5.25;3.53;;;;;;;22.38;50.67;98873.53;5066130;28;20492;-80
2021/07/31 09:34:09;;;;;;;7.85;4.00;;;;;;;22.17;50.87;98859.28;5066594;28;20051;-80
2021/07/31 09:36:37;;;;;;;7.47;3.42;;;;;;;22.06;51.66;98863.78;5065937;28;20040;-79
2021/07/31 09:39:05;;;;;;;7.93;3.53;;;;;;;22.06;51.75;98856.69;5065994;28;20017;-79
2021/07/31 09:41:33;;;;;;;8.85;2.85;;;;;;;22.50;51.87;98854.00;5066251;28;20035;-79
2021/07/31 09:44:04;;;;;;;7.22;3.30;;;;;;;23.59;49.39;98857.22;5066394;28;20056;-79
2021/07/31 09:46:42;;;;;;;7.68;3.33;;;;;;;24.21;48.24;98853.56;5066252;28;20029;-79
2021/07/31 09:49:10;;;;;;;6.53;3.30;;;;;;;24.25;46.62;98856.75;5066261;28;20033;-79
2021/07/31 09:51:38;;;;;;;8.00;3.75;;;;;;;23.99;46.92;98851.97;5066272;28;20032;-80
2021/07/31 09:54:10;;;;;;;5.95;3.22;;;;;;;24.10;47.29;98857.16;5066314;28;20025;-79
2021/07/31 09:56:40;;;;;;;;;;;;;;;24.11;46.44;98845.56;5066544;28;20025;-79
2021/07/31 09:59:06;;;;;;;10.88;3.20;;;;;;;24.22;47.45;98857.88;5064891;28;19971;-80
2021/07/31 10:01:35;;;;;;;12.52;4.30;;;;;;;24.22;46.45;98838.47;5066436;28;20040;-81
2021/07/31 10:04:02;;;;;;;8.43;4.60;;;;;;;23.87;46.55;98848.59;5066105;28;20047;-80
2021/07/31 10:06:30;;;;;;;7.90;4.00;;;;;;;23.30;48.58;98852.63;5064720;28;20036;-80
2021/07/31 10:08:55;;;;;;;7.70;4.18;;;;;;;22.98;49.36;98854.44;5066150;28;20036;-79
2021/07/31 10:11:22;;;;;;;7.45;4.28;;;;;;;22.73;50.25;98851.22;5066197;28;20025;-78
2021/07/31 10:13:48;;;;;;;10.25;5.13;;;;;;;22.64;50.70;98857.31;5066116;28;20028;-78
2021/07/31 10:16:13;;;;;;;11.88;4.80;;;;;;;22.53;51.00;98850.25;5065995;28;20090;-79
2021/07/31 10:18:39;;;;;;;8.15;5.07;;;;;;;22.44;51.40;98849.22;5066021;28;20037;-76
2021/07/31 10:21:09;;;;;;;10.68;4.97;;;;;;;22.28;51.75;98844.38;5064621;28;20025;-81
2021/07/31 10:23:54;;;;;;;8.98;4.65;;;;;;;22.68;52.33;98837.59;5066022;28;20021;-80
2021/07/31 10:26:20;;;;;;;10.45;4.25;;;;;;;23.45;50.49;98831.94;5064509;28;20025;-79
2021/07/31 10:28:45;;;;;;;14.75;4.90;;;;;;;23.77;48.96;98841.50;5065791;28;20025;-79
2021/07/31 10:31:26;;;;;;;10.20;4.47;;;;;;;24.01;49.15;98829.66;5065568;28;20028;-79
2021/07/31 10:33:52;;;;;;;12.73;5.05;;;;;;;24.06;48.11;98826.59;5065980;28;20025;-78
2021/07/31 10:36:27;;;;;;;9.38;4.53;;;;;;;23.88;48.50;98826.44;5065171;28;20448;-80
2021/07/31 10:38:53;;;;;;;10.20;4.72;;;;;;;24.11;48.95;98824.34;5065803;28;20056;-79
2021/07/31 10:41:54;;;;;;;9.38;4.13;;;;;;;24.10;48.24;98827.16;5065946;28;20025;-80
2021/07/31 10:44:20;;;;;;;9.27;5.57;;;;;;;23.46;49.06;98833.63;5065908;28;20501;-79
2021/07/31 10:46:45;;;;;;;7.63;4.30;;;;;;;22.97;50.65;98826.28;5065165;28;20296;-80
2021/07/31 10:49:33;;;;;;;8.05;4.97;;;;;;;22.81;51.31;98836.53;5064476;28;20029;-80
2021/07/31 10:51:58;;;;;;;9.93;5.18;;;;;;;23.07;51.67;98825.53;5064307;28;20031;-80
2021/07/31 10:55:02;;;;;;;10.75;4.63;;;;;;;24.15;49.99;98819.66;5064284;28;20060;-81
2021/07/31 10:57:52;;;;;;;10.25;5.03;;;;;;;24.41;49.14;98818.25;5065625;28;20029;-79
2021/07/31 11:00:28;;;;;;;10.60;4.97;;;;;;;24.35;48.20;98816.97;5065242;28;20033;-78
2021/07/31 11:02:54;;;;;;;8.88;4.50;;;;;;;24.58;48.19;98820.16;5064454;28;20101;-79
2021/07/31 11:05:21;;;;;;;13.07;4.97;;;;;;;24.87;47.85;98810.44;5065667;28;20052;-79
2021/07/31 11:08:00;;;;;;;9.90;4.32;;;;;;;24.92;47.80;98815.34;5065313;28;20489;-79
2021/07/31 11:10:44;;;;;;;10.82;4.85;;;;;;;24.87;47.54;98813.09;5065370;28;20461;-78
2021/07/31 11:13:16;;;;;;;9.10;5.32;;;;;;;24.33;48.05;98811.81;5064094;28;20033;-79
2021/07/31 11:15:58;;;;;;;12.32;4.88;;;;;;;23.81;49.01;98817.38;5065291;28;20079;-77
2021/07/31 11:18:24;;;;;;;12.90;4.72;;;;;;;23.42;50.29;98820.78;5065536;28;20028;-77
2021/07/31 11:20:50;;;;;;;9.23;5.05;;;;;;;23.26;50.69;98817.63;5065515;28;20029;-77
2021/07/31 11:23:18;;;;;;;13.20;6.00;;;;;;;23.19;51.13;98816.50;5065626;28;20024;-78
2021/07/31 11:25:45;;;;;;;8.88;5.18;;;;;;;22.89;51.18;98808.44;5065065;28;20462;-78
2021/07/31 11:28:11;;;;;;;11.75;5.28;;;;;;;22.69;52.05;98817.25;5063875;28;20029;-78